Metar z połowy godziny Komunikat METAR ze strony awiacja.imgw.pl Metar G30 EPMB METAR EPMB 170900Z 18006KT 140V220 CAVOK 25/14 Q1018 RMK 253 050 1/1=